Time;durP1;ratioP1;P1;durP2;ratioP2;P2;SDS_P1;SDS_P2;PMS_P1;PMS_P2;Temp;Humidity;BMP_temperature;BMP_pressure;BME280_temperature;BME280_humidity;BME280_pressure;Samples;Min_cycle;Max_cycle;Signal;HPM_P1;HPM_P2
2021/03/30 00:04:47;;;;;;;;;;;11.30;94.70;;;;;;13182680;22;20004;-85
2021/03/30 00:09:48;;;;;;;;;;;11.30;94.90;;;;;;13131129;22;19946;-84
2021/03/30 00:14:50;;;;;;;;;;;11.40;94.30;;;;;;13156996;22;19989;-85
2021/03/30 00:19:51;;;;;;;;;;;11.70;93.80;;;;;;13155778;22;19918;-85
2021/03/30 00:24:52;;;;;;;;;;;11.60;94.20;;;;;;13156016;22;19926;-84
2021/03/30 00:29:53;;;;;;;;;;;11.70;94.60;;;;;;13129875;22;19922;-84
2021/03/30 00:34:55;;;;;;;;;;;11.40;94.90;;;;;;13130570;22;19937;-84
2021/03/30 00:39:56;;;;;;;;;;;11.40;95.10;;;;;;13155316;22;20314;-84
2021/03/30 00:44:58;;;;;;;;;;;11.30;96.10;;;;;;13155380;22;19985;-84
2021/03/30 00:49:59;;;;;;;;;;;12.60;97.00;;;;;;13156519;22;20027;-84
2021/03/30 00:55:01;;;;;;;;;;;10.90;96.60;;;;;;13183920;22;19990;-84
2021/03/30 01:00:06;;;;;;;;;;;10.80;97.10;;;;;;13154438;22;19953;-85
2021/03/30 01:05:08;;;;;;;;;;;11.20;96.10;;;;;;13182591;22;19993;-84
2021/03/30 01:10:21;;;;;;;;;;;10.80;97.40;;;;;;13155877;22;19960;-84
2021/03/30 01:15:33;;;;;;;;;;;10.40;98.50;;;;;;13154989;22;20216;-84
2021/03/30 01:20:47;;;;;;;;;;;10.50;98.80;;;;;;13155400;22;20002;-84
2021/03/30 01:25:53;;;;;;;;;;;10.20;99.90;;;;;;13155429;22;19922;-84
2021/03/30 01:30:56;;;;;;;;;;;9.90;99.90;;;;;;13154667;22;19919;-84
2021/03/30 01:35:58;;;;;;;;;;;9.90;99.90;;;;;;13154467;22;20001;-84
2021/03/30 01:41:00;;;;;;;;;;;9.20;99.90;;;;;;13155136;22;19997;-84
2021/03/30 01:46:01;;;;;;;;;;;8.90;99.90;;;;;;13154234;22;19933;-84
2021/03/30 01:51:03;;;;;;;;;;;8.40;99.90;;;;;;13155079;22;19925;-84
2021/03/30 01:56:05;;;;;;;;;;;7.90;99.90;;;;;;13154967;22;19993;-84
2021/03/30 02:01:07;;;;;;;;;;;7.70;99.90;;;;;;13128841;22;19997;-84
2021/03/30 02:06:09;;;;;;;;;;;7.70;99.90;;;;;;13153861;22;20346;-84
2021/03/30 02:11:19;;;;;;;;;;;7.60;99.90;;;;;;13154250;22;19942;-84
2021/03/30 02:16:22;;;;;;;;;;;8.70;99.90;;;;;;13154794;22;19993;-84
2021/03/30 02:21:28;;;;;;;;;;;7.20;99.90;;;;;;13154031;22;19918;-84
2021/03/30 02:26:30;;;;;;;;;;;7.30;99.90;;;;;;13154485;22;19949;-84
2021/03/30 02:31:32;;;;;;;;;;;7.00;99.90;;;;;;13128222;22;19949;-84
2021/03/30 02:36:34;;;;;;;;;;;7.30;99.90;;;;;;13154232;22;19924;-84
2021/03/30 02:41:36;;;;;;;;;;;7.10;99.90;;;;;;13153871;22;19954;-84
2021/03/30 02:46:39;;;;;;;;;;;7.30;99.90;;;;;;13154196;22;19950;-84
2021/03/30 02:51:41;;;;;;;;;;;8.80;99.90;;;;;;13152362;22;19925;-84
2021/03/30 02:56:42;;;;;;;;;;;7.00;99.90;;;;;;13153094;22;20370;-84
2021/03/30 03:01:45;;;;;;;;;;;7.80;99.90;;;;;;13126812;22;19950;-84
2021/03/30 03:06:46;;;;;;;;;;;7.10;99.90;;;;;;13152784;22;19998;-84
2021/03/30 03:11:48;;;;;;;;;;;7.00;99.90;;;;;;13152588;22;19918;-84
2021/03/30 03:16:50;;;;;;;;;;;6.80;99.90;;;;;;13152715;22;20354;-84
2021/03/30 03:21:51;;;;;;;;;;;8.30;99.90;;;;;;13180627;22;19928;-84
2021/03/30 03:26:52;;;;;;;;;;;7.30;99.90;;;;;;13127301;22;19989;-84
2021/03/30 03:31:54;;;;;;;;;;;6.60;99.90;;;;;;13126311;22;19918;-84
2021/03/30 03:36:59;;;;;;;;;;;7.60;99.90;;;;;;13152353;22;19922;-84
2021/03/30 03:42:00;;;;;;;;;;;6.00;99.90;;;;;;13152200;22;19924;-84
2021/03/30 03:47:01;;;;;;;;;;;6.00;99.90;;;;;;13126245;22;20211;-84
2021/03/30 03:52:04;;;;;;;;;;;5.90;99.90;;;;;;13153133;22;19993;-84
2021/03/30 03:57:41;;;;;;;;;;;5.80;99.90;;;;;;13152414;22;20350;-83
2021/03/30 04:02:46;;;;;;;;;;;5.80;99.90;;;;;;12983246;22;19919;-84
2021/03/30 04:07:59;;;;;;;;;;;5.80;99.90;;;;;;13151956;22;20292;-84
2021/03/30 04:13:03;;;;;;;;;;;5.60;99.90;;;;;;13152877;22;19953;-84
2021/03/30 04:18:05;;;;;;;;;;;;;;;;;;13151984;22;19985;-84
2021/03/30 04:23:06;;;;;;;;;;;;;;;;;;13151895;22;19945;-84
2021/03/30 04:28:08;;;;;;;;;;;5.50;99.90;;;;;;13153305;22;19983;-84
2021/03/30 04:33:09;;;;;;;;;;;6.90;99.90;;;;;;13181750;22;20006;-84
2021/03/30 04:38:11;;;;;;;;;;;5.50;99.90;;;;;;13155330;22;20365;-84
2021/03/30 04:43:12;;;;;;;;;;;4.90;99.90;;;;;;13155245;22;19925;-84
2021/03/30 04:48:14;;;;;;;;;;;6.20;99.90;;;;;;13130262;22;19925;-84
2021/03/30 04:53:15;;;;;;;;;;;5.40;99.90;;;;;;13130244;22;19918;-84
2021/03/30 04:58:16;;;;;;;;;;;5.60;99.90;;;;;;13155189;22;20255;-84
2021/03/30 05:03:17;;;;;;;;;;;5.30;99.90;;;;;;13128828;22;20346;-84
2021/03/30 05:08:18;;;;;;;;;;;5.30;99.90;;;;;;13182285;22;19945;-84
2021/03/30 05:13:20;;;;;;;;;;;5.30;99.90;;;;;;13154828;22;19944;-84
2021/03/30 05:18:21;;;;;;;;;;;5.20;99.90;;;;;;13155495;22;20032;-84
2021/03/30 05:23:23;;;;;;;;;;;5.00;99.90;;;;;;13128769;22;19919;-84
2021/03/30 05:28:24;;;;;;;;;;;5.60;99.90;;;;;;13128555;22;20353;-84
2021/03/30 05:33:26;;;;;;;;;;;6.00;99.90;;;;;;13155363;22;19918;-83
2021/03/30 05:38:28;;;;;;;;;;;6.40;99.90;;;;;;13154587;22;19957;-84
2021/03/30 05:43:29;;;;;;;;;;;5.30;99.90;;;;;;13127568;22;19929;-84
2021/03/30 05:48:32;;;;;;;;;;;6.50;99.90;;;;;;13154690;22;19918;-84
2021/03/30 05:53:34;;;;;;;;;;;5.30;99.90;;;;;;13129057;22;20376;-84
2021/03/30 05:58:36;;;;;;;;;;;5.80;99.90;;;;;;13153864;22;19924;-84
2021/03/30 06:03:38;;;;;;;;;;;5.00;99.90;;;;;;13128118;22;19997;-87
2021/03/30 06:08:42;;;;;;;;;;;5.30;99.90;;;;;;13153573;22;20319;-87
2021/03/30 06:13:46;;;;;;;;;;;5.50;99.90;;;;;;13153525;22;19922;-87
2021/03/30 06:18:47;;;;;;;;;;;5.90;99.90;;;;;;13181662;22;19985;-87
2021/03/30 06:23:49;;;;;;;;;;;7.40;99.90;;;;;;13154060;22;20009;-87
2021/03/30 06:28:50;;;;;;;;;;;9.30;99.90;;;;;;13180766;22;19928;-87
2021/03/30 06:33:54;;;;;;;;;;;8.80;99.90;;;;;;13152856;22;19940;-87
2021/03/30 06:39:07;;;;;;;;;;;11.50;99.90;;;;;;13153985;22;19922;-87
2021/03/30 06:49:28;;;;;;;;;;;13.20;99.90;;;;;;13181808;22;19918;-88
2021/03/30 06:54:29;;;;;;;;;;;13.40;99.90;;;;;;13153419;22;19945;-87
2021/03/30 06:59:40;;;;;;;;;;;12.60;99.90;;;;;;13153426;22;19918;-88
2021/03/30 07:04:54;;;;;;;;;;;12.80;99.90;;;;;;13180594;22;19926;-88
2021/03/30 07:09:56;;;;;;;;;;;13.50;99.90;;;;;;13152533;22;20357;-88
2021/03/30 07:14:58;;;;;;;;;;;14.10;99.90;;;;;;13180325;22;20235;-88
2021/03/30 07:20:02;;;;;;;;;;;14.30;99.90;;;;;;13152282;22;19997;-88
2021/03/30 07:25:05;;;;;;;;;;;15.00;99.90;;;;;;13151734;22;20354;-88
2021/03/30 07:30:07;;;;;;;;;;;15.40;99.90;;;;;;13180260;22;19918;-88
2021/03/30 07:35:12;;;;;;;;;;;15.60;97.30;;;;;;13179990;22;19993;-89
2021/03/30 07:40:14;;;;;;;;;;;16.70;94.20;;;;;;13180702;22;19918;-88
2021/03/30 07:45:18;;;;;;;;;;;16.60;92.50;;;;;;13180757;22;19942;-89
2021/03/30 07:50:21;;;;;;;;;;;16.00;92.40;;;;;;13152306;22;19926;-89
2021/03/30 07:55:23;;;;;;;;;;;15.80;91.60;;;;;;13185195;22;19976;-87
2021/03/30 08:00:31;;;;;;;;;;;16.30;86.60;;;;;;13174091;22;19958;-88
2021/03/30 08:05:32;;;;;;;;;;;16.70;90.90;;;;;;13178220;22;20388;-89
2021/03/30 08:10:34;;;;;;;;;;;17.50;83.00;;;;;;13156919;22;19994;-88
2021/03/30 08:15:53;;;;;;;;;;;18.00;82.80;;;;;;13183806;22;20349;-89
2021/03/30 08:21:03;;;;;;;;;;;17.70;75.40;;;;;;13184154;22;19996;-89
2021/03/30 08:26:36;;;;;;;;;;;18.30;77.10;;;;;;13156899;22;19922;-89
2021/03/30 08:31:48;;;;;;;;;;;18.50;72.50;;;;;;13063496;22;19949;-89
2021/03/30 08:36:51;;;;;;;;;;;18.50;70.00;;;;;;13175229;22;19926;-89
2021/03/30 08:41:57;;;;;;;;;;;18.80;69.10;;;;;;13174935;22;20319;-89
2021/03/30 08:46:59;;;;;;;;;;;19.60;66.90;;;;;;13148014;22;19990;-89
2021/03/30 08:52:08;;;;;;;;;;;19.40;66.90;;;;;;13176782;22;19926;-89
2021/03/30 08:57:12;;;;;;;;;;;18.60;66.60;;;;;;13148368;22;20499;-89
2021/03/30 09:02:13;;;;;;;;;;;18.70;67.90;;;;;;13147686;22;19993;-88
2021/03/30 09:07:15;;;;;;;;;;;18.60;68.00;;;;;;13174796;22;19949;-88
2021/03/30 09:12:16;;;;;;;;;;;19.20;67.20;;;;;;13147199;22;19929;-89
2021/03/30 09:17:17;;;;;;;;;;;19.30;63.60;;;;;;13174648;22;19985;-89
2021/03/30 09:22:34;;;;;;;;;;;19.10;65.20;;;;;;13148693;22;19926;-89
2021/03/30 09:27:36;;;;;;;;;;;19.30;64.20;;;;;;13122088;22;20331;-89
2021/03/30 09:32:39;;;;;;;;;;;18.20;67.40;;;;;;13146828;22;19922;-89
2021/03/30 09:37:43;;;;;;;;;;;19.10;64.80;;;;;;13146770;22;19927;-89
2021/03/30 09:42:45;;;;;;;;;;;19.50;62.20;;;;;;13145595;22;19984;-89
2021/03/30 09:47:46;;;;;;;;;;;19.60;61.90;;;;;;13173490;22;19973;-89
2021/03/30 09:52:48;;;;;;;;;;;20.10;59.80;;;;;;13120892;22;19922;-90
2021/03/30 09:57:57;;;;;;;;;;;20.30;58.00;;;;;;13146428;22;19961;-89
2021/03/30 10:02:59;;;;;;;;;;;19.80;59.10;;;;;;13174349;22;19922;-89
2021/03/30 10:08:00;;;;;;;;;;;20.00;58.30;;;;;;13173116;22;19930;-89
2021/03/30 10:13:05;;;;;;;;;;;20.60;57.50;;;;;;13146127;22;19929;-89
2021/03/30 10:18:11;;;;;;;;;;;20.00;57.90;;;;;;13121495;22;19997;-89
2021/03/30 10:23:15;;;;;;;;;;;20.20;59.70;;;;;;13173934;22;19925;-89
2021/03/30 10:28:26;;;;;;;;;;;22.70;54.20;;;;;;13174759;22;19945;-89
2021/03/30 10:33:32;;;;;;;;;;;21.40;55.70;;;;;;13145739;22;19928;-89
2021/03/30 10:38:33;;;;;;;;;;;21.40;53.90;;;;;;13144573;22;19929;-89
2021/03/30 10:43:35;;;;;;;;;;;22.10;56.10;;;;;;13145637;22;19968;-90
2021/03/30 10:48:55;;;;;;;;;;;22.20;51.30;;;;;;13171894;22;19929;-90
2021/03/30 10:53:58;;;;;;;;;;;21.80;52.70;;;;;;13144651;22;19993;-90
2021/03/30 10:59:05;;;;;;;;;;;21.10;52.70;;;;;;13144295;22;19929;-89
2021/03/30 11:04:07;;;;;;;;;;;21.70;51.70;;;;;;13143926;22;20362;-89
2021/03/30 11:09:09;;;;;;;;;;;21.80;50.20;;;;;;13144407;22;20746;-89
2021/03/30 11:14:10;;;;;;;;;;;22.00;51.70;;;;;;13172609;22;20295;-90
2021/03/30 11:19:13;;;;;;;;;;;21.90;48.60;;;;;;13118589;22;20013;-90
2021/03/30 11:24:22;;;;;;;;;;;22.40;44.10;;;;;;13145015;22;19964;-89
2021/03/30 11:29:30;;;;;;;;;;;21.90;42.40;;;;;;13144359;22;19990;-90
2021/03/30 11:39:39;;;;;;;;;;;22.50;36.10;;;;;;13172679;22;19922;-90
2021/03/30 11:44:40;;;;;;;;;;;22.40;39.10;;;;;;13176493;22;19926;-91
2021/03/30 11:49:42;;;;;;;;;;;22.20;32.20;;;;;;13122589;22;19952;-91
2021/03/30 11:54:44;;;;;;;;;;;22.10;35.40;;;;;;13148213;22;20339;-90
2021/03/30 11:59:46;;;;;;;;;;;22.90;38.10;;;;;;13174755;22;20259;-89
2021/03/30 12:04:47;;;;;;;;;;;23.00;35.50;;;;;;13176277;22;20005;-90
2021/03/30 12:09:49;;;;;;;;;;;22.30;36.30;;;;;;13126321;22;20402;-91
2021/03/30 12:14:50;;;;;;;;;;;23.10;36.50;;;;;;13152037;22;19933;-90
2021/03/30 12:19:52;;;;;;;;;;;23.00;33.70;;;;;;13152183;22;19997;-88
2021/03/30 12:24:53;;;;;;;;;;;23.00;36.70;;;;;;13124542;22;20339;-88
2021/03/30 12:29:54;;;;;;;;;;;22.60;36.10;;;;;;13150540;22;20312;-88
2021/03/30 12:34:56;;;;;;;;;;;23.20;42.40;;;;;;13151176;22;19986;-88
2021/03/30 12:39:57;;;;;;;;;;;22.80;39.70;;;;;;13151198;22;19922;-88
2021/03/30 12:44:58;;;;;;;;;;;22.60;38.70;;;;;;13126069;22;19949;-88
2021/03/30 12:49:59;;;;;;;;;;;23.30;38.20;;;;;;13124836;22;19929;-88
2021/03/30 12:55:06;;;;;;;;;;;22.80;37.80;;;;;;13148594;22;20398;-87
2021/03/30 13:00:08;;;;;;;;;;;23.40;38.40;;;;;;13177595;22;20021;-88
2021/03/30 13:05:10;;;;;;;;;;;22.70;36.80;;;;;;13176086;22;19928;-87
2021/03/30 13:10:12;;;;;;;;;;;22.80;38.40;;;;;;13148777;22;19948;-88
2021/03/30 13:15:13;;;;;;;;;;;23.70;40.10;;;;;;13179296;22;20321;-88
2021/03/30 13:20:16;;;;;;;;;;;23.40;37.90;;;;;;13126720;22;19953;-88
2021/03/30 13:25:31;;;;;;;;;;;22.80;40.80;;;;;;13149053;22;19994;-88
2021/03/30 13:30:43;;;;;;;;;;;23.20;41.50;;;;;;13150624;22;19947;-88
2021/03/30 13:35:49;;;;;;;;;;;23.00;38.90;;;;;;13176938;22;19918;-88
2021/03/30 13:40:51;;;;;;;;;;;23.10;39.70;;;;;;13123157;22;20234;-88
2021/03/30 13:45:52;;;;;;;;;;;22.80;38.00;;;;;;13151424;22;19997;-88
2021/03/30 13:50:53;;;;;;;;;;;23.30;39.10;;;;;;13151208;22;19946;-88
2021/03/30 13:55:55;;;;;;;;;;;23.30;36.80;;;;;;13178698;22;19918;-88
2021/03/30 14:00:56;;;;;;;;;;;23.70;38.10;;;;;;13124605;22;20327;-88
2021/03/30 14:05:57;;;;;;;;;;;23.30;35.90;;;;;;13123928;22;19956;-88
2021/03/30 14:10:59;;;;;;;;;;;23.60;37.00;;;;;;13125433;22;19929;-88
2021/03/30 14:16:12;;;;;;;;;;;23.60;36.80;;;;;;13124852;22;19989;-88
2021/03/30 14:21:17;;;;;;;;;;;23.50;34.60;;;;;;13150251;22;19944;-87
2021/03/30 14:26:23;;;;;;;;;;;23.40;36.60;;;;;;13124690;22;19922;-88
2021/03/30 14:31:44;;;;;;;;;;;23.60;35.10;;;;;;13155600;22;19922;-88
2021/03/30 14:36:46;;;;;;;;;;;23.30;34.90;;;;;;13124022;22;20616;-88
2021/03/30 14:41:51;;;;;;;;;;;23.20;35.30;;;;;;13178567;22;19922;-87
2021/03/30 14:53:05;;;;;;;;;;;23.10;36.80;;;;;;13155964;22;19933;-88
2021/03/30 14:58:15;;;;;;;;;;;22.80;37.70;;;;;;13134547;22;19922;-88
2021/03/30 15:08:50;;;;;;;;;;;22.50;39.40;;;;;;13108191;22;19919;-87
2021/03/30 15:14:11;;;;;;;;;;;22.80;40.00;;;;;;13132917;22;20255;-87
2021/03/30 15:19:14;;;;;;;;;;;22.80;40.40;;;;;;13124065;22;19919;-87
2021/03/30 15:24:16;;;;;;;;;;;22.60;40.10;;;;;;13125013;22;19925;-87
2021/03/30 15:29:18;;;;;;;;;;;22.40;37.60;;;;;;13149982;22;19918;-87
2021/03/30 15:34:19;;;;;;;;;;;22.70;38.00;;;;;;13123024;22;19957;-87
2021/03/30 15:39:20;;;;;;;;;;;22.50;38.90;;;;;;13175785;22;20349;-87
2021/03/30 15:44:44;;;;;;;;;;;22.20;41.40;;;;;;13148340;22;19922;-87
2021/03/30 15:49:50;;;;;;;;;;;22.30;41.00;;;;;;13127126;22;19928;-87
2021/03/30 15:55:24;;;;;;;;;;;22.10;43.10;;;;;;13149068;22;19919;-87
2021/03/30 16:00:20;;;;;;;;;;;22.00;41.30;;;;;;13166827;22;19976;-87
2021/03/30 16:05:23;;;;;;;;;;;21.90;42.50;;;;;;13149800;22;19958;-87
2021/03/30 16:10:25;;;;;;;;;;;21.70;43.40;;;;;;13181631;22;19985;-87
2021/03/30 16:15:26;;;;;;;;;;;21.70;43.50;;;;;;13146929;22;19926;-87
2021/03/30 16:20:27;;;;;;;;;;;21.50;43.30;;;;;;13173761;22;20022;-87
2021/03/30 16:25:31;;;;;;;;;;;21.50;44.40;;;;;;13174516;22;19929;-87
2021/03/30 16:30:32;;;;;;;;;;;21.40;44.10;;;;;;13150206;22;19979;-87
2021/03/30 16:35:34;;;;;;;;;;;21.10;45.90;;;;;;13148534;22;19922;-87
2021/03/30 16:40:36;;;;;;;;;;;20.90;47.10;;;;;;13147952;22;19926;-87
2021/03/30 16:45:41;;;;;;;;;;;20.80;47.60;;;;;;13149736;22;19945;-87
2021/03/30 16:50:43;;;;;;;;;;;20.60;48.30;;;;;;13148789;22;20301;-87
2021/03/30 16:55:44;;;;;;;;;;;20.60;47.40;;;;;;13176090;22;19928;-87
2021/03/30 17:00:46;;;;;;;;;;;20.50;48.00;;;;;;13122314;22;19923;-88
2021/03/30 17:05:48;;;;;;;;;;;20.20;50.20;;;;;;13147408;22;20016;-87
2021/03/30 17:10:49;;;;;;;;;;;19.80;52.70;;;;;;13147930;22;19993;-87
2021/03/30 17:15:50;;;;;;;;;;;19.50;52.80;;;;;;13122535;22;19944;-88
2021/03/30 17:20:52;;;;;;;;;;;19.30;52.40;;;;;;13147887;22;19928;-87
2021/03/30 17:25:55;;;;;;;;;;;18.80;54.40;;;;;;13121290;22;19922;-87
2021/03/30 17:30:56;;;;;;;;;;;18.30;58.40;;;;;;13147807;22;19922;-87
2021/03/30 17:35:59;;;;;;;;;;;18.00;59.80;;;;;;13147753;22;20028;-88
2021/03/30 17:41:03;;;;;;;;;;;17.70;61.20;;;;;;13174198;22;20014;-87
2021/03/30 17:46:04;;;;;;;;;;;17.30;64.50;;;;;;13147227;22;20559;-87
2021/03/30 17:51:05;;;;;;;;;;;17.00;66.40;;;;;;13148343;22;19993;-87
2021/03/30 17:56:06;;;;;;;;;;;16.50;68.90;;;;;;13147866;22;19919;-87
2021/03/30 18:01:08;;;;;;;;;;;16.30;74.20;;;;;;13147476;22;20323;-87
2021/03/30 18:06:09;;;;;;;;;;;16.10;72.00;;;;;;13146906;22;19929;-85
2021/03/30 18:11:10;;;;;;;;;;;15.70;74.60;;;;;;13173486;22;19944;-85
2021/03/30 18:16:12;;;;;;;;;;;15.50;77.70;;;;;;13145640;22;19985;-85
2021/03/30 18:21:13;;;;;;;;;;;15.30;88.10;;;;;;13145288;22;19968;-85
2021/03/30 18:26:15;;;;;;;;;;;15.20;86.40;;;;;;13173529;22;20005;-85
2021/03/30 18:31:16;;;;;;;;;;;14.90;86.70;;;;;;13145079;22;19960;-85
2021/03/30 18:36:17;;;;;;;;;;;14.70;88.80;;;;;;13172501;22;19922;-85
2021/03/30 18:41:21;;;;;;;;;;;14.60;88.20;;;;;;13172749;22;19922;-85
2021/03/30 18:46:22;;;;;;;;;;;14.30;90.20;;;;;;13144241;22;19918;-86
2021/03/30 18:51:23;;;;;;;;;;;14.10;91.00;;;;;;13143285;22;19926;-86
2021/03/30 18:56:25;;;;;;;;;;;13.90;92.30;;;;;;13144296;22;19922;-86
2021/03/30 19:01:26;;;;;;;;;;;13.70;93.70;;;;;;13145105;22;19933;-86
2021/03/30 19:06:28;;;;;;;;;;;13.40;93.10;;;;;;13144214;22;19961;-86
2021/03/30 19:11:31;;;;;;;;;;;13.50;94.30;;;;;;13117931;22;21329;-86
2021/03/30 19:16:33;;;;;;;;;;;13.30;93.90;;;;;;13118978;22;19960;-86
2021/03/30 19:21:34;;;;;;;;;;;13.40;92.60;;;;;;13144265;22;19922;-86
2021/03/30 19:26:36;;;;;;;;;;;13.00;94.70;;;;;;13145029;22;19930;-86
2021/03/30 19:32:03;;;;;;;;;;;12.70;95.40;;;;;;13119251;22;19945;-86
2021/03/30 19:36:59;;;;;;;;;;;12.60;95.90;;;;;;13147932;22;19922;-86
2021/03/30 19:42:01;;;;;;;;;;;12.60;95.30;;;;;;13144393;22;19922;-86
2021/03/30 19:47:03;;;;;;;;;;;12.40;94.60;;;;;;13172179;22;19929;-86
2021/03/30 19:52:06;;;;;;;;;;;12.50;94.50;;;;;;13143396;22;19992;-85
2021/03/30 19:57:07;;;;;;;;;;;12.30;95.20;;;;;;13117741;22;19956;-86
2021/03/30 20:02:08;;;;;;;;;;;12.10;96.50;;;;;;13119278;22;19997;-86
2021/03/30 20:07:10;;;;;;;;;;;11.90;96.60;;;;;;13121642;22;19922;-86
2021/03/30 20:12:11;;;;;;;;;;;11.70;98.10;;;;;;13122279;22;19985;-86
2021/03/30 20:17:13;;;;;;;;;;;11.60;97.70;;;;;;13149503;22;19985;-86
2021/03/30 20:22:14;;;;;;;;;;;11.60;98.50;;;;;;13148435;22;19925;-86
2021/03/30 20:27:15;;;;;;;;;;;11.50;98.90;;;;;;13146837;22;20333;-86
2021/03/30 20:32:16;;;;;;;;;;;11.30;99.00;;;;;;13148800;22;19922;-86
2021/03/30 20:37:18;;;;;;;;;;;11.30;99.50;;;;;;13147557;22;20431;-86
2021/03/30 20:42:19;;;;;;;;;;;11.10;99.80;;;;;;13121704;22;20381;-86
2021/03/30 20:47:20;;;;;;;;;;;11.10;99.90;;;;;;13148000;22;19989;-86
2021/03/30 20:52:22;;;;;;;;;;;10.90;99.90;;;;;;13151039;22;19993;-86
2021/03/30 20:57:23;;;;;;;;;;;11.00;99.90;;;;;;13129320;22;20411;-86
2021/03/30 21:02:24;;;;;;;;;;;11.00;99.90;;;;;;13154889;22;19922;-86
2021/03/30 21:07:26;;;;;;;;;;;11.50;99.90;;;;;;13128322;22;19926;-86
2021/03/30 21:12:27;;;;;;;;;;;11.10;99.90;;;;;;13155302;22;19918;-86
2021/03/30 21:17:29;;;;;;;;;;;11.10;99.90;;;;;;13129807;22;19918;-86
2021/03/30 21:22:30;;;;;;;;;;;11.00;99.90;;;;;;13154521;22;20319;-86
2021/03/30 21:27:31;;;;;;;;;;;10.70;99.90;;;;;;13155294;22;19985;-86
2021/03/30 21:32:33;;;;;;;;;;;10.60;99.90;;;;;;13154392;22;20262;-85
2021/03/30 21:37:34;;;;;;;;;;;10.50;99.90;;;;;;13182965;22;19972;-86
2021/03/30 21:42:36;;;;;;;;;;;10.60;99.90;;;;;;13154145;22;19926;-86
2021/03/30 21:47:39;;;;;;;;;;;10.50;99.90;;;;;;13154472;22;19929;-86
2021/03/30 21:52:41;;;;;;;;;;;10.50;99.90;;;;;;13155238;22;19929;-86
2021/03/30 21:57:43;;;;;;;;;;;11.10;99.90;;;;;;13154985;22;19933;-86
2021/03/30 22:02:45;;;;;;;;;;;10.20;99.90;;;;;;13154399;22;19919;-86
2021/03/30 22:07:47;;;;;;;;;;;10.10;99.90;;;;;;13127815;22;19953;-86
2021/03/30 22:12:56;;;;;;;;;;;10.20;99.90;;;;;;13128062;22;20328;-85
2021/03/30 22:17:57;;;;;;;;;;;10.10;99.90;;;;;;13153646;22;19925;-86
2021/03/30 22:23:00;;;;;;;;;;;10.50;99.90;;;;;;13128239;22;19972;-86
2021/03/30 22:28:03;;;;;;;;;;;10.00;99.90;;;;;;13153913;22;19985;-86
2021/03/30 22:33:05;;;;;;;;;;;10.10;99.90;;;;;;13153866;22;19919;-86
2021/03/30 22:38:11;;;;;;;;;;;9.80;99.90;;;;;;13153135;22;19938;-86
2021/03/30 22:43:12;;;;;;;;;;;9.90;99.90;;;;;;13152975;22;19941;-85
2021/03/30 22:48:13;;;;;;;;;;;9.80;99.90;;;;;;13153158;22;20342;-86
2021/03/30 22:53:15;;;;;;;;;;;9.80;99.90;;;;;;13180849;22;19918;-86
2021/03/30 22:58:18;;;;;;;;;;;9.50;99.90;;;;;;13153894;22;19925;-86
2021/03/30 23:03:20;;;;;;;;;;;9.50;99.90;;;;;;13180367;22;20001;-86
2021/03/30 23:08:21;;;;;;;;;;;9.60;99.90;;;;;;13126540;22;19918;-86
2021/03/30 23:13:24;;;;;;;;;;;9.30;99.90;;;;;;13180265;22;20242;-86
2021/03/30 23:18:25;;;;;;;;;;;10.70;99.90;;;;;;13153348;22;19993;-86
2021/03/30 23:23:26;;;;;;;;;;;9.10;99.90;;;;;;13127499;22;19993;-86
2021/03/30 23:28:28;;;;;;;;;;;9.10;99.90;;;;;;13127207;22;19985;-86
2021/03/30 23:33:29;;;;;;;;;;;9.20;99.90;;;;;;13153137;22;19998;-86
2021/03/30 23:38:30;;;;;;;;;;;9.40;99.90;;;;;;13126646;22;19918;-86
2021/03/30 23:43:31;;;;;;;;;;;10.00;99.90;;;;;;13153113;22;19967;-86
2021/03/30 23:48:32;;;;;;;;;;;10.10;99.90;;;;;;13152946;22;19926;-86
2021/03/30 23:53:34;;;;;;;;;;;10.00;99.90;;;;;;13126192;22;20292;-86
2021/03/30 23:58:36;;;;;;;;;;;9.90;99.90;;;;;;13153129;22;19940;-86
